Terminal Aerodrome Forecast
Issued by NWS

Home | Current Version | Previous Version | Text Only | Print | Product List | Glossary On
Versions: 1 2 3 4 5 6 7 8 9 10 11 12 13 14 15 16 17 18 19 20
000
FTUS42 KTBW 280400 AAA
TAFRSW
TAF AMD
KRSW 280410Z 2804/2824 05011KT P6SM BKN007 OVC015
     FM280900 04009KT 4SM BR VCSH SCT004 OVC007
     FM281500 08010KT P6SM VCSH SCT025 OVC050=

USA.gov is the U.S. government's official web portal to all federal, state and local government web resources and services.